Portada
METAR-TAF:

METAR-TAF

Aeroports :

Elista, Rússia

latitud: 46-22N, longitud: 044-20E, altitud: 150 m

Observació

L'informe es va fer fa 19 minuts, a les 08:00 UTC
Vent 10 kt del Nord, variant entre Nord/Nord-Oest i Nord-Est
Temperatura 33°C
Humitat 26%
Pressió 1010 hPa
Visibilitat 10 km o més
sense núvols per sota de 1500 mi sense presència de cumulonimbus.

METAR: URWI 080800Z 01005MPS 340V040 CAVOK 33/11 Q1010 R09/010065 NOSIG

Hora: 12:19 (08:19 UTC)

Pronòstic

L'informe es va fer fa 3 hores i 19 minuts, a les 05:00 UTC
Pronòstic vàlid del 08 a les 06 UTC al 08 a les 15 UTC
Vent 12 kt del Nord amb ràfegues de 23 kt
Visibilitat 10 km o més
Núvols disperses a una alçada de 3000 ft
Temporalment
l' 08 a les 06 UTC al 08 a les 15 UTC
Vent 6 kt del Nord/Nord-Est amb ràfegues de 19 kt

TAF: URWI 080500Z 0806/0815 36006G12MPS 9999 SCT030 TEMPO 0806/0815 03003G10MPS

Observacions i pronòstics meteorològics de més de 4000 aeroports (METAR i TAF).

Les estacions disponibles són els punts grocs i vermells al mapa.

Posi el ratolí al punt desitjat per veure el nom de l'estació.

Feu clic per veure les observacions i els pronòstics meteorològics.

Per canviar el mapa: feu clic els botons verds amb una creu de color negre per apropar; al botó verd amb un guió per allunyar la imatge; o en les fletxes verdes per a mapes adjacents.


METAR-TAF: